Sagamore Hill, Pennsylvania
Current Conditions -  °F | °C
As of 1:54 AM on Saturday 01 Nov 2014 (Local Time) from KIPT Reporting Station
Overcast Overcast  
Wind Chill: 45°   Ceiling: 7000
Heat Index: 45°   Visibility: 10mi
Dew Point: 37°   Wind: 0mph
Humidity: 74%   Direction: NA
Pressure: 29.87"   Gusts: NA
Location:  41.2558°N, 77.4987°W
Report Text: KIPT 010554Z AUTO 00000KT 10SM OVC070 07/03 A2987 RMK AO2 SLP118 T00720028 10089 20067 56005
Loading
Personal Weather Stations






























Interactive Weather Map
Tropical Storm Tracking
New forecast layout! Learn more

10-Day Weather Forecast

Advertisements
Track Severe Weather on mobile